Time;durP1;ratioP1;P1;durP2;ratioP2;P2;SDS_P1;SDS_P2;PMS_P1;PMS_P2;Temp;Humidity;BMP_temperature;BMP_pressure;BME280_temperature;BME280_humidity;BME280_pressure;Samples;Min_cycle;Max_cycle;Signal;HPM_P1;HPM_P2
2022/07/02 00:01:30;;;;;;;1.90;1.70;;;;;;;14.56;77.81;100083.81;4982537;28;20366;-82
2022/07/02 00:04:02;;;;;;;2.77;1.67;;;;;;;14.60;78.18;100082.63;4982482;28;20488;-82
2022/07/02 00:06:30;;;;;;;2.85;1.65;;;;;;;14.64;78.06;100083.28;4978462;28;20716;-81
2022/07/02 00:08:55;;;;;;;1.25;1.15;;;;;;;14.68;77.90;100075.94;4979787;28;20221;-81
2022/07/02 00:11:21;;;;;;;1.40;1.30;;;;;;;14.66;77.70;100076.06;4979975;28;20265;-82
2022/07/02 00:13:49;;;;;;;2.63;1.60;;;;;;;14.64;77.66;100064.75;4978675;28;20338;-82
2022/07/02 00:16:14;;;;;;;1.70;1.60;;;;;;;14.65;77.48;100065.59;4974177;28;20209;-81
2022/07/02 00:18:40;;;;;;;2.17;1.77;;;;;;;14.61;77.34;100065.00;4984537;28;20339;-81
2022/07/02 00:21:05;;;;;;;1.57;1.47;;;;;;;14.56;77.56;100061.84;4977455;28;20288;-81
2022/07/02 00:23:31;;;;;;;1.63;1.50;;;;;;;14.52;77.60;100068.25;4978202;28;20228;-81
2022/07/02 00:25:59;;;;;;;2.07;1.40;;;;;;;14.49;77.66;100066.69;4982894;28;20687;-81
2022/07/02 00:28:26;;;;;;;4.47;1.35;;;;;;;14.46;77.57;100066.06;4978890;28;20197;-81
2022/07/02 00:30:52;;;;;;;4.10;1.80;;;;;;;14.46;77.92;100066.91;4973317;28;20529;-82
2022/07/02 00:33:18;;;;;;;2.28;2.10;;;;;;;14.45;78.21;100064.41;4975965;28;20287;-83
2022/07/02 00:35:45;;;;;;;4.30;1.60;;;;;;;14.45;77.93;100064.41;4978176;28;20206;-81
2022/07/02 00:38:11;;;;;;;2.70;1.45;;;;;;;14.43;77.91;100058.38;4979115;28;20216;-81
2022/07/02 00:40:37;;;;;;;3.53;1.47;;;;;;;14.36;77.85;100063.22;4977421;28;20230;-81
2022/07/02 00:43:03;;;;;;;1.83;1.20;;;;;;;14.33;78.15;100068.75;4982863;28;20240;-81
2022/07/02 00:45:32;;;;;;;1.73;1.57;;;;;;;14.26;78.01;100062.22;4978510;28;20687;-81
2022/07/02 00:47:59;;;;;;;2.15;1.50;;;;;;;14.19;78.06;100067.09;4979803;28;20220;-83
2022/07/02 00:50:25;;;;;;;1.92;1.25;;;;;;;14.17;78.33;100072.47;4980541;28;20279;-81
2022/07/02 00:52:50;;;;;;;1.53;1.43;;;;;;;14.17;78.10;100063.72;4976723;28;20206;-81
2022/07/02 00:55:17;;;;;;;3.87;1.30;;;;;;;14.21;78.19;100064.34;4979472;28;20663;-81
2022/07/02 00:57:48;;;;;;;1.35;1.25;;;;;;;14.20;78.29;100060.00;4979290;28;20216;-81
2022/07/02 01:00:18;;;;;;;1.90;1.30;;;;;;;14.18;78.43;100062.78;4974931;28;20520;-81
2022/07/02 01:02:45;;;;;;;4.88;1.67;;;;;;;14.17;78.45;100061.91;4979966;28;20297;-81
2022/07/02 01:05:13;;;;;;;3.88;2.00;;;;;;;14.15;78.38;100057.72;4981996;28;20601;-81
2022/07/02 01:07:41;;;;;;;1.48;1.38;;;;;;;14.11;78.50;100056.22;4980222;28;20217;-81
2022/07/02 01:10:18;;;;;;;2.05;1.52;;;;;;;14.01;78.55;100044.63;4971745;28;20211;-81
2022/07/02 01:12:49;;;;;;;2.75;1.60;;;;;;;13.88;78.75;100049.91;4984355;28;20203;-81
2022/07/02 01:15:16;;;;;;;1.55;1.23;;;;;;;13.82;78.82;100051.19;4976144;28;20212;-81
2022/07/02 01:17:42;;;;;;;1.85;1.30;;;;;;;13.78;78.88;100043.63;4977100;28;20313;-83
2022/07/02 01:20:08;;;;;;;2.07;1.20;;;;;;;13.70;78.90;100041.50;4920865;28;20244;-81
2022/07/02 01:22:35;;;;;;;1.50;1.40;;;;;;;13.63;79.15;100041.06;4930561;29;20216;-81
2022/07/02 01:25:01;;;;;;;1.00;0.90;;;;;;;13.57;79.20;100038.88;4930233;29;20265;-80
2022/07/02 01:27:26;;;;;;;2.33;1.20;;;;;;;13.50;79.14;100041.09;4932209;29;20213;-80
2022/07/02 01:29:52;;;;;;;1.13;1.00;;;;;;;13.42;79.31;100042.56;4928467;29;20706;-81
2022/07/02 01:32:18;;;;;;;1.27;1.17;;;;;;;13.36;79.47;100048.25;4929647;29;20666;-81
2022/07/02 01:34:50;;;;;;;1.20;1.10;;;;;;;13.28;79.58;100049.66;4930266;29;20777;-81
2022/07/02 01:37:19;;;;;;;1.45;1.30;;;;;;;13.26;79.60;100048.91;4929754;29;20236;-82
2022/07/02 01:39:45;;;;;;;1.63;1.30;;;;;;;13.24;79.66;100053.38;4944119;28;20225;-81
2022/07/02 01:42:12;;;;;;;1.55;1.10;;;;;;;13.21;79.75;100050.97;4927470;29;20811;-81
2022/07/02 01:44:38;;;;;;;1.40;1.30;;;;;;;13.20;79.83;100051.88;4929803;29;20244;-81
2022/07/02 01:47:06;;;;;;;2.00;1.20;;;;;;;13.17;79.86;100054.75;4928355;29;20206;-83
2022/07/02 01:49:32;;;;;;;1.20;1.00;;;;;;;13.15;79.77;100053.16;4927268;29;20223;-80
2022/07/02 01:51:58;;;;;;;1.27;0.90;;;;;;;13.09;79.82;100056.22;4929516;29;20224;-81
2022/07/02 01:54:23;;;;;;;1.63;1.10;;;;;;;12.99;79.99;100056.00;4930102;29;20209;-81
2022/07/02 01:56:49;;;;;;;1.10;1.00;;;;;;;12.94;80.15;100058.94;4928606;29;20709;-81
2022/07/02 01:59:15;;;;;;;1.20;1.10;;;;;;;12.87;80.29;100062.91;4932371;29;20248;-81
2022/07/02 02:01:41;;;;;;;2.90;1.30;;;;;;;12.85;80.49;100064.78;4930274;29;20532;-81
2022/07/02 02:04:06;;;;;;;1.40;1.30;;;;;;;12.80;80.58;100061.63;4931109;29;20213;-81
2022/07/02 02:06:32;;;;;;;1.77;1.10;;;;;;;12.79;80.61;100070.47;4934382;29;20240;-81
2022/07/02 02:08:57;;;;;;;1.50;1.37;;;;;;;12.80;80.47;100069.53;4929736;29;20647;-83
2022/07/02 02:11:23;;;;;;;1.37;1.27;;;;;;;12.76;80.37;100066.25;4930889;29;20654;-83
2022/07/02 02:13:49;;;;;;;1.80;1.30;;;;;;;12.70;80.46;100065.81;4929857;29;20223;-81
2022/07/02 02:16:14;;;;;;;1.40;1.30;;;;;;;12.66;80.76;100064.31;4931775;29;20212;-81
2022/07/02 02:18:39;;;;;;;1.30;1.20;;;;;;;12.61;80.82;100075.16;4930494;29;20690;-82
2022/07/02 02:21:05;;;;;;;1.90;1.60;;;;;;;12.57;80.89;100071.88;4931418;29;20276;-81
2022/07/02 02:23:30;;;;;;;1.40;1.30;;;;;;;12.57;80.97;100071.88;4932835;29;20244;-81
2022/07/02 02:25:56;;;;;;;1.47;1.37;;;;;;;12.61;81.06;100070.75;4931355;29;20304;-81
2022/07/02 02:28:22;;;;;;;1.97;1.60;;;;;;;12.62;80.83;100069.78;4927190;29;20293;-82
2022/07/02 02:30:48;;;;;;;7.07;1.40;;;;;;;12.63;80.86;100068.00;4929783;29;20206;-81
2022/07/02 02:33:13;;;;;;;1.70;1.37;;;;;;;12.64;80.91;100074.97;4932709;29;20212;-81
2022/07/02 02:35:38;;;;;;;1.50;1.40;;;;;;;12.67;80.77;100071.28;4932262;29;20216;-83
2022/07/02 02:38:04;;;;;;;1.70;1.60;;;;;;;12.63;81.00;100074.09;4933545;29;20241;-83
2022/07/02 02:40:29;;;;;;;2.37;1.10;;;;;;;12.62;81.18;100069.78;4932252;29;20292;-83
2022/07/02 02:42:55;;;;;;;2.20;1.23;;;;;;;12.66;81.04;100074.84;4931171;29;20396;-81
2022/07/02 02:45:20;;;;;;;2.47;1.20;;;;;;;12.71;80.87;100063.06;4928605;29;20693;-81
2022/07/02 02:47:45;;;;;;;1.43;1.10;;;;;;;12.73;80.85;100063.81;4929004;29;20205;-81
2022/07/02 02:50:11;;;;;;;1.33;1.23;;;;;;;12.72;80.77;100063.91;4929775;29;20233;-81
2022/07/02 02:52:36;;;;;;;3.73;1.97;;;;;;;12.71;80.81;100059.59;4932413;29;20218;-80
2022/07/02 02:55:02;;;;;;;1.73;1.10;;;;;;;12.67;80.74;100063.38;4933828;29;20276;-82
2022/07/02 02:57:28;;;;;;;1.87;1.10;;;;;;;12.58;80.84;100065.66;4935318;29;20201;-82
2022/07/02 02:59:53;;;;;;;1.60;1.43;;;;;;;12.52;80.92;100063.41;4946674;23;22023;-79
2022/07/02 03:02:19;;;;;;;1.40;1.10;;;;;;;12.50;81.11;100072.34;4940682;28;20232;-79
2022/07/02 03:04:44;;;;;;;1.33;1.23;;;;;;;12.48;81.10;100067.19;4944531;28;20232;-79
2022/07/02 03:07:09;;;;;;;2.63;1.37;;;;;;;12.49;81.09;100068.88;4945129;28;20601;-77
2022/07/02 03:09:35;;;;;;;1.70;1.50;;;;;;;12.51;81.18;100067.00;4941179;28;20628;-79
2022/07/02 03:12:00;;;;;;;1.83;1.50;;;;;;;12.53;80.87;100064.25;4947804;28;20201;-79
2022/07/02 03:14:26;;;;;;;1.53;1.43;;;;;;;12.53;80.92;100070.38;4945488;28;20216;-79
2022/07/02 03:16:52;;;;;;;1.77;1.67;;;;;;;12.54;81.04;100073.88;4947635;28;20377;-79
2022/07/02 03:19:17;;;;;;;1.77;1.57;;;;;;;12.51;81.02;100072.28;4943329;28;20488;-79
2022/07/02 03:21:42;;;;;;;1.20;1.10;;;;;;;12.50;80.89;100070.59;4944174;28;20650;-79
2022/07/02 03:24:08;;;;;;;1.17;1.07;;;;;;;12.49;81.04;100078.59;4943631;28;20216;-79
2022/07/02 03:26:33;;;;;;;1.40;1.00;;;;;;;12.46;80.92;100079.63;4948164;28;20274;-79
2022/07/02 03:28:58;;;;;;;1.40;1.13;;;;;;;12.42;80.90;100072.84;4941883;28;20239;-79
2022/07/02 03:31:24;;;;;;;1.37;0.90;;;;;;;12.35;80.92;100082.94;4945004;28;20217;-79
2022/07/02 03:33:49;;;;;;;1.13;1.03;;;;;;;12.28;81.05;100086.88;4945579;28;20240;-79
2022/07/02 03:36:15;;;;;;;1.00;0.90;;;;;;;12.23;81.17;100090.75;4947715;28;20250;-79
2022/07/02 03:38:40;;;;;;;3.13;1.40;;;;;;;12.18;81.19;100089.28;4945319;28;20325;-79
2022/07/02 03:41:08;;;;;;;3.30;1.20;;;;;;;12.18;81.19;100093.69;4944851;28;20612;-79
2022/07/02 03:43:35;;;;;;;1.25;1.10;;;;;;;12.16;80.97;100092.94;4944641;29;20705;-79
2022/07/02 03:46:00;;;;;;;1.10;1.00;;;;;;;12.12;81.24;100092.31;4944493;28;20285;-79
2022/07/02 03:48:26;;;;;;;2.00;1.00;;;;;;;12.10;81.14;100088.91;4946105;28;20292;-79
2022/07/02 03:50:51;;;;;;;3.40;1.37;;;;;;;12.10;81.18;100099.44;4944312;28;20491;-77
2022/07/02 03:53:17;;;;;;;1.80;1.33;;;;;;;12.11;81.22;100100.28;4944389;28;20299;-77
2022/07/02 03:55:42;;;;;;;1.10;1.00;;;;;;;12.07;81.28;100110.16;4946893;28;20772;-77
2022/07/02 03:58:08;;;;;;;1.20;1.10;;;;;;;12.06;81.12;100110.25;4946854;28;20221;-77
2022/07/02 04:00:33;;;;;;;8.33;1.30;;;;;;;12.06;81.15;100105.81;4944106;28;20248;-78
2022/07/02 04:02:59;;;;;;;1.40;1.15;;;;;;;12.09;81.15;100121.44;4942125;28;20498;-77
2022/07/02 04:05:24;;;;;;;2.03;1.23;;;;;;;12.10;81.39;100112.59;4944212;28;20205;-77
2022/07/02 04:07:50;;;;;;;1.30;1.03;;;;;;;12.10;81.36;100109.13;4944272;28;20713;-77
2022/07/02 04:10:16;;;;;;;1.10;1.00;;;;;;;12.10;81.17;100107.34;4942501;28;20229;-78
2022/07/02 04:12:41;;;;;;;1.40;1.10;;;;;;;12.08;81.28;100106.59;4942625;28;20260;-77
2022/07/02 04:15:07;;;;;;;0.97;0.90;;;;;;;12.07;81.38;100115.44;4946692;28;20260;-77
2022/07/02 04:17:33;;;;;;;1.20;1.10;;;;;;;12.07;81.23;100109.28;4946964;28;20264;-77
2022/07/02 04:19:58;;;;;;;2.77;1.33;;;;;;;12.07;81.15;100111.94;4944783;28;21028;-77
2022/07/02 04:22:23;;;;;;;1.60;1.50;;;;;;;12.10;81.50;100112.59;4946119;28;20233;-77
2022/07/02 04:24:49;;;;;;;1.63;1.10;;;;;;;12.20;81.33;100114.66;4945909;28;20866;-77
2022/07/02 04:27:14;;;;;;;1.60;1.33;;;;;;;12.31;81.17;100120.09;4942970;28;20212;-77
2022/07/02 04:29:40;;;;;;;1.47;1.37;;;;;;;12.40;80.61;100117.75;4943013;28;20227;-77
2022/07/02 04:32:06;;;;;;;1.42;1.17;;;;;;;12.48;80.51;100117.25;4944298;28;20495;-77
2022/07/02 04:34:32;;;;;;;1.40;1.30;;;;;;;12.54;80.51;100114.22;4943711;28;20205;-77
2022/07/02 04:36:57;;;;;;;1.67;1.10;;;;;;;12.61;80.25;100118.19;4945612;28;20475;-77
2022/07/02 04:39:23;;;;;;;1.70;1.50;;;;;;;12.68;80.12;100112.50;4942882;28;20682;-77
2022/07/02 04:41:48;;;;;;;1.47;1.37;;;;;;;12.75;80.00;100116.44;4941907;28;20229;-78
2022/07/02 04:44:13;;;;;;;1.67;1.43;;;;;;;12.82;79.74;100112.44;4945311;28;20255;-77
2022/07/02 04:46:39;;;;;;;1.43;1.33;;;;;;;12.96;79.59;100117.69;4946460;28;20271;-77
2022/07/02 04:49:04;;;;;;;2.30;1.80;;;;;;;13.09;79.74;100112.44;4942517;28;20698;-77
2022/07/02 04:51:30;;;;;;;3.30;1.90;;;;;;;13.54;78.74;100112.97;4943769;28;20570;-77
2022/07/02 04:53:55;;;;;;;2.07;1.87;;;;;;;15.12;73.34;100109.72;4944225;28;20287;-77
2022/07/02 04:56:20;;;;;;;2.27;2.10;;;;;;;16.88;67.53;100099.56;4944109;28;20922;-77
2022/07/02 04:58:46;;;;;;;3.00;2.03;;;;;;;18.30;62.65;100095.41;4943165;28;20205;-77
2022/07/02 05:01:11;;;;;;;3.37;1.60;;;;;;;19.52;59.05;100092.44;4938592;28;20251;-78
2022/07/02 05:03:37;;;;;;;2.08;1.80;;;;;;;20.66;55.28;100093.97;4943095;28;20582;-78
2022/07/02 05:06:03;;;;;;;1.90;1.40;;;;;;;21.43;53.22;100092.50;4943740;28;20208;-78
2022/07/02 05:08:28;;;;;;;1.77;1.67;;;;;;;21.93;51.67;100082.97;4942593;28;20250;-78
2022/07/02 05:10:54;;;;;;;1.80;1.47;;;;;;;22.69;49.95;100083.94;4939511;28;20483;-78
2022/07/02 05:13:21;;;;;;;1.87;1.43;;;;;;;23.33;47.80;100084.19;4946002;28;20222;-78
2022/07/02 05:15:46;;;;;;;1.93;1.60;;;;;;;23.88;46.77;100083.47;4943115;28;20484;-78
2022/07/02 05:18:12;;;;;;;4.83;2.33;;;;;;;24.57;45.14;100081.00;4941529;28;20487;-78
2022/07/02 05:20:37;;;;;;;3.93;1.90;;;;;;;24.98;43.80;100080.75;4944329;28;20754;-78
2022/07/02 05:23:03;;;;;;;1.70;1.47;;;;;;;25.05;43.46;100076.28;4938792;28;20673;-78
2022/07/02 05:25:28;;;;;;;1.73;1.63;;;;;;;25.17;43.07;100082.97;4937483;28;20222;-78
2022/07/02 05:27:54;;;;;;;1.67;1.57;;;;;;;25.11;43.01;100080.97;4939666;28;20721;-78
2022/07/02 05:30:19;;;;;;;1.70;1.60;;;;;;;25.27;42.45;100069.25;4937760;28;20301;-78
2022/07/02 05:32:44;;;;;;;2.90;2.00;;;;;;;25.79;41.53;100073.78;4937815;28;20506;-78
2022/07/02 05:35:10;;;;;;;2.20;2.00;;;;;;;26.27;40.49;100065.31;4937538;28;20261;-78
2022/07/02 05:37:35;;;;;;;2.40;1.90;;;;;;;26.65;39.53;100066.03;4936705;28;20647;-78
2022/07/02 05:40:01;;;;;;;2.20;2.00;;;;;;;26.85;39.38;100063.53;4936123;28;20222;-78
2022/07/02 05:42:27;;;;;;;3.67;1.80;;;;;;;27.17;38.90;100071.28;4935898;28;20551;-78
2022/07/02 05:44:53;;;;;;;3.80;1.90;;;;;;;27.44;38.08;100067.78;4937078;28;20579;-79
2022/07/02 05:47:18;;;;;;;3.10;1.93;;;;;;;27.73;37.33;100065.91;4938853;29;20245;-79
2022/07/02 05:49:43;;;;;;;5.73;2.07;;;;;;;28.06;37.05;100067.97;4937359;28;20231;-78
2022/07/02 05:52:09;;;;;;;1.97;1.80;;;;;;;28.45;36.45;100057.34;4937252;28;20711;-79
2022/07/02 05:54:34;;;;;;;3.20;1.80;;;;;;;28.84;35.55;100058.50;4938925;28;20213;-79
2022/07/02 05:56:59;;;;;;;2.00;1.80;;;;;;;29.02;35.04;100062.47;4938962;28;20513;-79
2022/07/02 05:59:25;;;;;;;1.53;1.40;;;;;;;29.10;34.91;100065.00;4940391;28;20645;-79
2022/07/02 06:01:50;;;;;;;1.60;1.50;;;;;;;28.92;34.99;100060.16;4937219;28;20277;-79
2022/07/02 06:04:16;;;;;;;3.40;2.00;;;;;;;28.94;34.78;100055.38;4938945;28;20223;-79
2022/07/02 06:09:25;;;;;;;2.30;1.90;;;;;;;28.97;34.58;100054.97;4940181;28;20693;-79
2022/07/02 06:11:51;;;;;;;2.50;1.83;;;;;;;28.43;35.50;100054.03;4938589;28;20565;-79
2022/07/02 06:14:16;;;;;;;2.10;2.00;;;;;;;28.25;35.86;100051.03;4940926;28;20526;-79
2022/07/02 06:16:41;;;;;;;2.67;1.70;;;;;;;28.70;34.96;100048.69;4941351;28;20211;-79
2022/07/02 06:19:07;;;;;;;5.77;1.70;;;;;;;29.19;34.19;100047.53;4941095;28;20873;-79
2022/07/02 06:21:34;;;;;;;2.63;2.07;;;;;;;29.68;33.57;100037.31;4939180;28;20227;-79
2022/07/02 06:23:59;;;;;;;1.70;1.60;;;;;;;30.16;32.98;100037.75;4939258;28;20217;-79
2022/07/02 06:26:25;;;;;;;1.90;1.80;;;;;;;30.71;31.68;100042.69;4940365;28;20473;-79
2022/07/02 06:28:50;;;;;;;1.80;1.70;;;;;;;31.14;30.79;100039.25;4938454;28;20220;-79
2022/07/02 06:31:16;;;;;;;1.60;1.50;;;;;;;31.48;30.60;100034.38;4937764;28;20260;-79
2022/07/02 06:33:41;;;;;;;3.00;2.17;;;;;;;31.28;30.92;100034.53;4936398;28;20496;-79
2022/07/02 06:36:10;;;;;;;1.60;1.50;;;;;;;31.07;30.71;100027.63;4939539;28;20224;-79
2022/07/02 06:38:37;;;;;;;2.07;1.90;;;;;;;31.25;30.78;100018.72;4935093;28;20562;-79
2022/07/02 06:42:18;;;;;;;3.93;1.60;;;;;;;31.58;30.17;100018.41;4935895;28;20522;-78
2022/07/02 06:43:48;;;;;;;7.40;2.20;;;;;;;31.93;29.72;100010.50;4939259;28;20497;-78
2022/07/02 06:46:14;;;;;;;1.73;1.63;;;;;;;32.05;29.74;100012.44;4938820;28;20490;-78
2022/07/02 06:48:39;;;;;;;2.13;1.87;;;;;;;31.96;30.05;100004.59;4939674;28;20229;-78
2022/07/02 06:51:05;;;;;;;3.23;1.43;;;;;;;31.91;30.24;100007.16;4938537;28;21138;-79
2022/07/02 06:53:30;;;;;;;1.60;1.43;;;;;;;32.03;29.55;100009.13;4940689;28;20694;-78
2022/07/02 06:55:55;;;;;;;1.33;1.20;;;;;;;32.11;29.45;100011.56;4939378;28;20281;-78
2022/07/02 06:58:21;;;;;;;1.93;1.73;;;;;;;31.93;29.88;100005.06;4939684;28;20212;-78
2022/07/02 07:00:46;;;;;;;1.70;1.60;;;;;;;32.03;29.27;100000.97;4937990;28;20962;-78
2022/07/02 07:03:11;;;;;;;2.27;1.50;;;;;;;32.08;29.05;99991.09;4938463;28;20495;-78
2022/07/02 07:05:38;;;;;;;2.90;1.67;;;;;;;32.34;28.72;99992.59;4939724;28;20336;-78
2022/07/02 07:08:04;;;;;;;1.80;1.20;;;;;;;32.89;28.17;99988.03;4940855;28;20233;-78
2022/07/02 07:10:31;;;;;;;1.30;1.20;;;;;;;33.31;27.57;99977.91;4939889;28;20593;-79
2022/07/02 07:12:57;;;;;;;1.83;1.70;;;;;;;33.53;27.24;99967.22;4943781;28;20469;-79
2022/07/02 07:15:22;;;;;;;2.13;1.40;;;;;;;33.60;27.03;99970.66;4948112;28;20527;-78
2022/07/02 07:17:48;;;;;;;3.67;1.50;;;;;;;33.92;26.84;99968.31;4944932;28;20202;-78
2022/07/02 07:20:16;;;;;;;2.00;1.70;;;;;;;34.02;26.26;99967.69;4946660;28;20707;-78
2022/07/02 07:22:43;;;;;;;1.50;1.40;;;;;;;34.13;26.16;99969.59;4946907;28;20233;-79
2022/07/02 07:25:08;;;;;;;1.70;1.50;;;;;;;34.30;26.17;99968.78;4944616;28;20565;-78
2022/07/02 07:27:34;;;;;;;1.50;1.40;;;;;;;33.93;26.16;99960.97;4948846;28;20572;-78
2022/07/02 07:29:59;;;;;;;1.63;1.33;;;;;;;33.00;27.75;99962.72;4948125;28;20242;-78
2022/07/02 07:32:24;;;;;;;4.77;2.00;;;;;;;33.03;27.46;99960.41;4945872;28;20483;-76
2022/07/02 07:34:50;;;;;;;2.60;1.73;;;;;;;33.44;26.91;99965.94;4946716;28;20246;-75
2022/07/02 07:37:15;;;;;;;2.70;1.77;;;;;;;33.84;26.56;99957.00;4945848;28;20268;-76
2022/07/02 07:39:41;;;;;;;2.30;1.60;;;;;;;33.98;26.21;99955.63;4947816;28;20262;-77
2022/07/02 07:42:06;;;;;;;6.70;1.93;;;;;;;34.00;26.49;99958.09;4942026;28;20237;-75
2022/07/02 07:44:32;;;;;;;1.90;1.80;;;;;;;34.00;26.55;99960.81;4946595;28;20245;-76
2022/07/02 07:46:58;;;;;;;1.67;1.57;;;;;;;33.96;26.66;99949.59;4945388;28;20732;-76
2022/07/02 07:49:23;;;;;;;1.87;1.50;;;;;;;33.86;26.65;99960.28;4946189;28;20474;-74
2022/07/02 07:51:49;;;;;;;2.30;1.90;;;;;;;33.75;26.32;99961.16;4943860;28;20206;-75
2022/07/02 07:54:14;;;;;;;2.43;1.30;;;;;;;33.50;26.98;99959.53;4944100;28;20218;-75
2022/07/02 07:56:41;;;;;;;1.50;1.40;;;;;;;33.81;26.69;99950.13;4945469;29;20242;-76
2022/07/02 07:59:08;;;;;;;2.60;1.37;;;;;;;33.91;26.45;99939.41;4945259;29;20857;-74
2022/07/02 08:01:33;;;;;;;1.93;1.30;;;;;;;34.03;26.52;99939.38;4945462;28;20961;-75
2022/07/02 08:03:59;;;;;;;1.60;1.50;;;;;;;33.85;26.20;99931.38;4941750;28;20570;-75
2022/07/02 08:06:24;;;;;;;1.63;1.33;;;;;;;33.36;27.35;99930.91;4945929;28;20209;-77
2022/07/02 08:08:49;;;;;;;1.30;1.20;;;;;;;33.10;27.80;99933.03;4944419;28;20230;-75
2022/07/02 08:11:15;;;;;;;1.47;1.27;;;;;;;33.22;27.60;99927.59;4943969;28;20219;-75
2022/07/02 08:13:40;;;;;;;1.33;1.20;;;;;;;32.73;28.20;99933.25;4941811;28;20222;-75
2022/07/02 08:16:06;;;;;;;1.93;1.30;;;;;;;32.71;28.82;99929.13;4945232;28;20202;-75
2022/07/02 08:18:34;;;;;;;1.60;1.10;;;;;;;32.75;28.40;99931.13;4945723;28;20894;-77
2022/07/02 08:21:01;;;;;;;1.23;1.10;;;;;;;32.89;28.39;99934.44;4944966;28;21284;-77
2022/07/02 08:23:26;;;;;;;1.67;1.10;;;;;;;32.73;28.46;99930.53;4944165;28;20489;-74
2022/07/02 08:25:54;;;;;;;1.30;1.20;;;;;;;32.32;29.47;99932.19;4943370;28;20500;-77
2022/07/02 08:28:20;;;;;;;1.43;1.17;;;;;;;31.19;30.83;99930.03;4945819;28;20289;-75
2022/07/02 08:30:46;;;;;;;3.23;1.90;;;;;;;29.30;34.07;99933.25;4942460;28;20489;-74
2022/07/02 08:33:13;;;;;;;3.30;1.90;;;;;;;28.34;36.09;99933.63;4945207;28;20470;-76
2022/07/02 08:35:39;;;;;;;1.40;1.03;;;;;;;27.84;37.70;99938.50;4944865;28;20777;-75
2022/07/02 08:38:05;;;;;;;1.60;1.30;;;;;;;27.42;38.54;99929.56;4946327;28;20484;-76
2022/07/02 08:40:31;;;;;;;1.60;1.50;;;;;;;27.33;38.90;99930.78;4942012;28;20242;-77
2022/07/02 08:42:59;;;;;;;1.37;1.27;;;;;;;27.39;39.41;99921.88;4943432;28;20218;-74
2022/07/02 08:45:29;;;;;;;1.43;1.20;;;;;;;27.24;39.60;99924.69;4941479;28;20478;-74
2022/07/02 08:47:54;;;;;;;1.70;1.57;;;;;;;27.33;39.78;99925.38;4946064;28;20541;-74
2022/07/02 08:50:21;;;;;;;1.57;1.47;;;;;;;27.49;39.53;99919.66;4943562;28;21006;-74
2022/07/02 08:52:49;;;;;;;1.37;1.27;;;;;;;27.47;39.37;99918.19;4939526;28;20210;-74
2022/07/02 08:55:15;;;;;;;2.00;1.40;;;;;;;27.27;40.17;99928.84;4944926;28;20481;-76
2022/07/02 08:57:41;;;;;;;2.23;1.20;;;;;;;27.24;40.05;99932.78;4944055;28;20461;-75
2022/07/02 09:00:07;;;;;;;1.87;1.27;;;;;;;27.27;39.82;99924.28;4942876;28;20493;-75
2022/07/02 09:02:33;;;;;;;3.43;1.43;;;;;;;27.36;39.59;99927.66;4942359;28;20575;-75
2022/07/02 09:05:02;;;;;;;3.77;1.40;;;;;;;27.45;39.89;99915.66;4941026;28;20529;-75
2022/07/02 09:07:28;;;;;;;1.70;1.17;;;;;;;27.59;39.74;99908.47;4945174;28;20476;-75
2022/07/02 09:09:55;;;;;;;1.20;1.10;;;;;;;27.56;39.33;99914.28;4943203;28;21018;-75
2022/07/02 09:12:23;;;;;;;1.93;1.40;;;;;;;27.56;39.15;99912.41;4941854;28;20283;-75
2022/07/02 09:14:49;;;;;;;1.90;1.50;;;;;;;27.23;39.22;99916.81;4942611;28;20552;-75
2022/07/02 09:17:15;;;;;;;1.30;1.20;;;;;;;27.17;40.17;99917.56;4943542;28;20477;-75
2022/07/02 09:19:40;;;;;;;1.93;1.47;;;;;;;27.15;39.75;99918.59;4941194;28;20482;-75
2022/07/02 09:22:08;;;;;;;1.40;1.27;;;;;;;27.07;39.63;99907.97;4943606;28;20226;-75
2022/07/02 09:24:39;;;;;;;1.80;1.40;;;;;;;27.19;39.60;99910.94;4941044;28;20849;-75
2022/07/02 09:27:07;;;;;;;1.57;1.20;;;;;;;27.57;39.45;99900.59;4941861;28;20852;-75
2022/07/02 09:30:06;;;;;;;1.20;1.10;;;;;;;27.77;38.58;99902.53;4945076;28;20465;-75
2022/07/02 09:32:40;;;;;;;1.80;1.30;;;;;;;27.22;38.73;99890.84;4941592;28;20524;-75
2022/07/02 09:35:06;;;;;;;1.40;1.30;;;;;;;27.27;39.15;99889.22;4941730;28;20477;-75
2022/07/02 09:37:31;;;;;;;1.20;1.10;;;;;;;27.31;39.50;99886.97;4943522;28;20466;-75
2022/07/02 09:40:00;;;;;;;1.30;1.20;;;;;;;27.59;38.72;99885.00;4940785;28;20494;-74
2022/07/02 09:42:32;;;;;;;1.63;1.53;;;;;;;27.96;38.12;99884.75;4940264;28;20297;-75
2022/07/02 09:45:01;;;;;;;1.20;1.10;;;;;;;28.14;37.92;99886.84;4935949;28;20888;-75
2022/07/02 09:47:31;;;;;;;2.70;1.40;;;;;;;28.30;38.02;99885.63;4936339;28;20465;-76
2022/07/02 09:49:56;;;;;;;1.70;1.10;;;;;;;28.14;38.48;99886.84;4938694;28;20486;-75
2022/07/02 09:52:22;;;;;;;2.33;1.20;;;;;;;28.13;38.42;99891.41;4941910;28;20469;-75
2022/07/02 09:54:47;;;;;;;1.30;1.20;;;;;;;28.39;37.96;99896.03;4941251;28;20206;-75
2022/07/02 09:57:13;;;;;;;2.00;1.17;;;;;;;28.30;37.94;99889.19;4942800;28;20770;-75
2022/07/02 09:59:40;;;;;;;2.63;1.50;;;;;;;28.52;37.85;99899.81;4942862;28;20233;-76
2022/07/02 10:02:24;;;;;;;1.63;1.52;;;;;;;28.84;36.83;99896.28;4942514;28;20592;-75
2022/07/02 10:04:54;;;;;;;1.20;1.10;;;;;;;29.08;36.58;99891.25;4942162;28;20215;-76
2022/07/02 10:07:24;;;;;;;3.37;1.20;;;;;;;29.16;36.48;99891.03;4942469;28;20474;-76
2022/07/02 10:09:51;;;;;;;1.30;1.20;;;;;;;29.03;36.16;99891.88;4943752;28;20489;-76
2022/07/02 10:12:17;;;;;;;2.23;1.20;;;;;;;28.88;36.10;99889.38;4943845;28;20509;-76
2022/07/02 10:14:44;;;;;;;1.30;1.20;;;;;;;28.69;36.42;99887.53;4942843;28;20476;-75
2022/07/02 10:17:10;;;;;;;1.17;1.07;;;;;;;28.75;36.72;99885.88;4941345;28;20480;-75
2022/07/02 10:19:38;;;;;;;1.50;1.40;;;;;;;28.90;36.23;99871.09;4948480;28;20461;-76
2022/07/02 10:22:05;;;;;;;1.40;1.30;;;;;;;29.01;35.84;99866.91;4928376;29;20505;-75
2022/07/02 10:24:32;;;;;;;1.50;1.40;;;;;;;29.17;35.60;99867.53;4946795;28;20466;-75
2022/07/02 10:26:59;;;;;;;1.63;1.30;;;;;;;28.86;36.12;99864.44;4945631;28;20487;-75
2022/07/02 10:29:26;;;;;;;8.23;4.77;;;;;;;28.88;35.91;99851.53;4946696;28;20988;-75
2022/07/02 10:32:25;;;;;;;1.37;1.07;;;;;;;28.99;35.91;99862.75;4946622;28;20832;-75
2022/07/02 10:35:06;;;;;;;1.30;1.10;;;;;;;28.87;35.90;99871.50;4943557;28;20474;-75
2022/07/02 10:37:32;;;;;;;2.20;1.33;;;;;;;28.68;36.56;99862.38;4942714;28;20465;-75
2022/07/02 10:40:04;;;;;;;0.80;0.80;;;;;;;28.90;36.47;99854.88;4945734;28;21158;-75
2022/07/02 10:42:44;;;;;;;1.93;1.20;;;;;;;29.06;36.21;99858.19;4947153;28;21205;-75
2022/07/02 10:45:23;;;;;;;2.03;1.30;;;;;;;28.95;36.02;99853.38;4942403;28;20458;-75
2022/07/02 10:47:53;;;;;;;1.20;1.10;;;;;;;28.77;36.72;99846.78;4946707;28;20520;-75
2022/07/02 10:50:19;;;;;;;1.57;1.10;;;;;;;28.77;36.95;99843.25;4947003;28;20482;-75
2022/07/02 10:52:49;;;;;;;1.60;1.23;;;;;;;28.90;37.01;99833.22;4947520;28;20565;-75
2022/07/02 10:55:28;;;;;;;1.10;1.00;;;;;;;29.07;36.83;99830.09;4946601;28;20477;-75
2022/07/02 10:58:07;;;;;;;1.57;1.40;;;;;;;28.92;36.70;99827.59;4942516;28;21000;-75
2022/07/02 11:00:35;;;;;;;3.13;1.13;;;;;;;28.96;36.85;99833.44;4945134;28;20509;-75
2022/07/02 11:03:15;;;;;;;4.77;1.40;;;;;;;29.15;36.33;99840.69;4945929;28;20470;-75
2022/07/02 11:05:51;;;;;;;1.20;1.10;;;;;;;29.25;36.07;99830.25;4944541;28;20457;-75
2022/07/02 11:08:40;;;;;;;2.07;1.20;;;;;;;29.19;35.62;99823.00;4940594;28;21104;-76
2022/07/02 11:11:06;;;;;;;1.57;1.47;;;;;;;28.90;36.55;99824.28;4944979;28;20481;-75
2022/07/02 11:13:38;;;;;;;1.40;1.17;;;;;;;28.88;37.01;99827.19;4945890;28;20549;-75
2022/07/02 11:16:25;;;;;;;2.93;1.40;;;;;;;28.88;36.73;99819.09;4945279;28;20851;-75
2022/07/02 11:18:52;;;;;;;1.60;1.50;;;;;;;28.69;36.94;99819.97;4944650;28;20485;-76
2022/07/02 11:21:19;;;;;;;1.93;1.30;;;;;;;28.43;37.85;99812.72;4944843;28;20512;-75
2022/07/02 11:23:45;;;;;;;2.43;1.20;;;;;;;28.43;37.76;99812.72;4943676;28;20465;-75
2022/07/02 11:26:15;;;;;;;2.80;1.53;;;;;;;28.55;38.19;99804.81;4942280;28;20541;-76
2022/07/02 11:28:40;;;;;;;2.80;1.33;;;;;;;28.30;38.09;99808.13;4944871;28;20264;-75
2022/07/02 11:31:06;;;;;;;2.47;1.30;;;;;;;28.20;38.59;99807.72;4944045;28;20517;-76